Abbeville, Georgia
Current Conditions -  °F | °C
As of 5:35 PM on Wednesday 26 Nov 2014 (Local Time) from KEZM Reporting Station
Clear Clear  
Wind Chill: 12°   Ceiling: Unl
Heat Index: 12°   Visibility: 10mi
Dew Point:   Wind: 5mph
Humidity: 43%   Direction: 260°W
Pressure: 30.13"   Gusts: NA
Location:  31.99°N, 83.31°W
Report Text: KEZM 262235Z AUTO 26004KT 10SM CLR 12/00 A3013 RMK AO2 T01221002
Loading
Personal Weather Stations






























Interactive Weather Map New forecast layout! Learn more

10-Day Weather Forecast

Advertisements
Track Severe Weather on mobile